sensor_id;sensor_type;location;lat;lon;timestamp;pressure;altitude;pressure_sealevel;temperature;humidity
46087;BME280;31824;49.648;8.640;2024-01-30T00:00:02;101707.88;;;1.54;100.00
46087;BME280;31824;49.648;8.640;2024-01-30T00:03:05;101710.72;;;1.44;100.00
46087;BME280;31824;49.648;8.640;2024-01-30T00:06:09;101719.91;;;1.47;100.00
46087;BME280;31824;49.648;8.640;2024-01-30T00:09:11;101716.84;;;1.44;100.00
46087;BME280;31824;49.648;8.640;2024-01-30T00:12:13;101716.13;;;1.40;100.00
46087;BME280;31824;49.648;8.640;2024-01-30T00:15:15;101725.31;;;1.49;100.00
46087;BME280;31824;49.648;8.640;2024-01-30T00:18:17;101716.34;;;1.47;100.00
46087;BME280;31824;49.648;8.640;2024-01-30T00:21:21;101717.78;;;1.50;100.00
46087;BME280;31824;49.648;8.640;2024-01-30T00:24:23;101719.19;;;1.60;100.00
46087;BME280;31824;49.648;8.640;2024-01-30T00:27:25;101718.00;;;1.58;100.00
46087;BME280;31824;49.648;8.640;2024-01-30T00:30:27;101723.16;;;1.58;100.00
46087;BME280;31824;49.648;8.640;2024-01-30T00:33:29;101719.91;;;1.53;100.00
46087;BME280;31824;49.648;8.640;2024-01-30T00:36:33;101719.19;;;1.54;100.00
46087;BME280;31824;49.648;8.640;2024-01-30T00:39:35;101710.47;;;1.59;100.00
46087;BME280;31824;49.648;8.640;2024-01-30T00:42:37;101726.03;;;1.59;100.00
46087;BME280;31824;49.648;8.640;2024-01-30T00:45:39;101719.41;;;1.56;100.00
46087;BME280;31824;49.648;8.640;2024-01-30T00:48:41;101716.84;;;1.50;100.00
46087;BME280;31824;49.648;8.640;2024-01-30T00:51:44;101719.63;;;1.63;100.00
46087;BME280;31824;49.648;8.640;2024-01-30T00:54:46;101712.38;;;1.49;100.00
46087;BME280;31824;49.648;8.640;2024-01-30T00:57:48;101712.59;;;1.50;100.00
46087;BME280;31824;49.648;8.640;2024-01-30T01:00:50;101715.91;;;1.44;100.00
46087;BME280;31824;49.648;8.640;2024-01-30T01:03:52;101718.25;;;1.48;100.00
46087;BME280;31824;49.648;8.640;2024-01-30T01:06:55;101724.84;;;1.57;100.00
46087;BME280;31824;49.648;8.640;2024-01-30T01:09:57;101718.88;;;1.81;100.00
46087;BME280;31824;49.648;8.640;2024-01-30T01:12:59;101717.03;;;1.63;100.00
46087;BME280;31824;49.648;8.640;2024-01-30T01:16:00;101721.31;;;1.51;100.00
46087;BME280;31824;49.648;8.640;2024-01-30T01:19:02;101716.38;;;1.52;100.00
46087;BME280;31824;49.648;8.640;2024-01-30T01:22:06;101714.97;;;1.49;100.00
46087;BME280;31824;49.648;8.640;2024-01-30T01:25:08;101721.78;;;1.37;100.00
46087;BME280;31824;49.648;8.640;2024-01-30T01:28:12;101721.09;;;1.27;100.00
46087;BME280;31824;49.648;8.640;2024-01-30T01:31:14;101711.44;;;1.31;100.00
46087;BME280;31824;49.648;8.640;2024-01-30T01:34:16;101711.44;;;1.37;100.00
46087;BME280;31824;49.648;8.640;2024-01-30T01:37:19;101715.69;;;1.31;100.00
46087;BME280;31824;49.648;8.640;2024-01-30T01:40:24;101721.31;;;1.34;100.00
46087;BME280;31824;49.648;8.640;2024-01-30T01:43:26;101713.09;;;1.37;100.00
46087;BME280;31824;49.648;8.640;2024-01-30T01:46:30;101723.91;;;1.40;100.00
46087;BME280;31824;49.648;8.640;2024-01-30T01:49:34;101715.22;;;1.33;100.00
46087;BME280;31824;49.648;8.640;2024-01-30T01:52:38;101719.69;;;1.23;100.00
46087;BME280;31824;49.648;8.640;2024-01-30T01:55:42;101715.44;;;1.18;100.00
46087;BME280;31824;49.648;8.640;2024-01-30T01:58:44;101709.78;;;1.21;100.00
46087;BME280;31824;49.648;8.640;2024-01-30T02:01:48;101715.22;;;1.11;100.00
46087;BME280;31824;49.648;8.640;2024-01-30T02:04:57;101706.72;;;1.23;100.00
46087;BME280;31824;49.648;8.640;2024-01-30T02:08:01;101705.09;;;1.12;100.00
46087;BME280;31824;49.648;8.640;2024-01-30T02:11:04;101706.50;;;1.16;100.00
46087;BME280;31824;49.648;8.640;2024-01-30T02:14:06;101710.97;;;1.06;100.00
46087;BME280;31824;49.648;8.640;2024-01-30T02:17:08;101708.16;;;0.98;100.00
46087;BME280;31824;49.648;8.640;2024-01-30T02:20:10;101707.91;;;0.91;100.00
46087;BME280;31824;49.648;8.640;2024-01-30T02:23:15;101695.66;;;1.01;100.00
46087;BME280;31824;49.648;8.640;2024-01-30T02:26:17;101709.53;;;0.91;100.00
46087;BME280;31824;49.648;8.640;2024-01-30T02:29:19;101709.06;;;0.82;100.00
46087;BME280;31824;49.648;8.640;2024-01-30T02:32:20;101711.88;;;0.78;100.00
46087;BME280;31824;49.648;8.640;2024-01-30T02:35:22;101714.94;;;0.81;100.00
46087;BME280;31824;49.648;8.640;2024-01-30T02:38:26;101709.75;;;0.75;100.00
46087;BME280;31824;49.648;8.640;2024-01-30T02:41:28;101702.25;;;0.71;100.00
46087;BME280;31824;49.648;8.640;2024-01-30T02:44:30;101705.78;;;0.83;100.00
46087;BME280;31824;49.648;8.640;2024-01-30T02:47:32;101705.75;;;0.77;100.00
46087;BME280;31824;49.648;8.640;2024-01-30T02:50:33;101710.47;;;0.74;100.00
46087;BME280;31824;49.648;8.640;2024-01-30T02:53:55;101707.41;;;0.71;100.00
46087;BME280;31824;49.648;8.640;2024-01-30T02:57:43;101714.91;;;0.64;100.00
46087;BME280;31824;49.648;8.640;2024-01-30T03:00:45;101713.75;;;0.79;100.00
46087;BME280;31824;49.648;8.640;2024-01-30T03:03:47;101707.41;;;0.71;100.00
46087;BME280;31824;49.648;8.640;2024-01-30T03:06:49;101706.91;;;0.62;100.00
46087;BME280;31824;49.648;8.640;2024-01-30T03:09:51;101698.44;;;0.52;100.00
46087;BME280;31824;49.648;8.640;2024-01-30T03:12:54;101705.97;;;0.56;100.00
46087;BME280;31824;49.648;8.640;2024-01-30T03:15:56;101709.50;;;0.62;100.00
46087;BME280;31824;49.648;8.640;2024-01-30T03:18:58;101710.44;;;0.57;100.00
46087;BME280;31824;49.648;8.640;2024-01-30T03:22:01;101709.94;;;0.60;100.00
46087;BME280;31824;49.648;8.640;2024-01-30T03:25:03;101707.13;;;0.64;100.00
46087;BME280;31824;49.648;8.640;2024-01-30T03:28:07;101700.56;;;0.60;100.00
46087;BME280;31824;49.648;8.640;2024-01-30T03:31:08;101696.31;;;0.55;100.00
46087;BME280;31824;49.648;8.640;2024-01-30T03:34:11;101694.66;;;0.50;100.00
46087;BME280;31824;49.648;8.640;2024-01-30T03:37:13;101701.72;;;0.51;100.00
46087;BME280;31824;49.648;8.640;2024-01-30T03:40:15;101697.28;;;0.61;100.00
46087;BME280;31824;49.648;8.640;2024-01-30T03:43:18;101699.38;;;0.53;100.00
46087;BME280;31824;49.648;8.640;2024-01-30T03:46:20;101705.72;;;0.55;100.00
46087;BME280;31824;49.648;8.640;2024-01-30T03:49:22;101702.94;;;0.64;100.00
46087;BME280;31824;49.648;8.640;2024-01-30T03:52:24;101699.38;;;0.58;100.00
46087;BME280;31824;49.648;8.640;2024-01-30T03:55:26;101693.75;;;0.61;100.00
46087;BME280;31824;49.648;8.640;2024-01-30T03:58:29;101707.84;;;0.57;100.00
46087;BME280;31824;49.648;8.640;2024-01-30T04:01:31;101699.38;;;0.64;100.00
46087;BME280;31824;49.648;8.640;2024-01-30T04:04:33;101701.25;;;0.59;100.00
46087;BME280;31824;49.648;8.640;2024-01-30T04:07:35;101697.75;;;0.64;100.00
46087;BME280;31824;49.648;8.640;2024-01-30T04:10:37;101688.09;;;0.69;100.00
46087;BME280;31824;49.648;8.640;2024-01-30T04:13:40;101693.28;;;0.69;100.00
46087;BME280;31824;49.648;8.640;2024-01-30T04:16:41;101693.75;;;0.61;100.00
46087;BME280;31824;49.648;8.640;2024-01-30T04:19:43;101693.97;;;0.62;100.00
46087;BME280;31824;49.648;8.640;2024-01-30T04:22:46;101704.34;;;0.68;100.00
46087;BME280;31824;49.648;8.640;2024-01-30T04:25:48;101699.16;;;0.62;100.00
46087;BME280;31824;49.648;8.640;2024-01-30T04:28:51;101695.41;;;0.72;100.00
46087;BME280;31824;49.648;8.640;2024-01-30T04:31:53;101695.41;;;0.66;100.00
46087;BME280;31824;49.648;8.640;2024-01-30T04:34:55;101693.03;;;0.56;100.00
46087;BME280;31824;49.648;8.640;2024-01-30T04:37:57;101698.22;;;0.56;100.00
46087;BME280;31824;49.648;8.640;2024-01-30T04:40:58;101698.91;;;0.66;100.00
46087;BME280;31824;49.648;8.640;2024-01-30T04:44:02;101699.66;;;0.65;100.00
46087;BME280;31824;49.648;8.640;2024-01-30T04:47:04;101701.25;;;0.59;100.00
46087;BME280;31824;49.648;8.640;2024-01-30T04:50:08;101697.50;;;0.57;100.00
46087;BME280;31824;49.648;8.640;2024-01-30T04:53:10;101701.09;;;0.80;100.00
46087;BME280;31824;49.648;8.640;2024-01-30T04:56:12;101702.25;;;0.77;100.00
46087;BME280;31824;49.648;8.640;2024-01-30T04:59:15;101706.72;;;0.83;100.00
46087;BME280;31824;49.648;8.640;2024-01-30T05:02:17;101709.03;;;0.65;100.00
46087;BME280;31824;49.648;8.640;2024-01-30T05:05:19;101710.44;;;0.63;100.00
46087;BME280;31824;49.648;8.640;2024-01-30T05:08:20;101714.19;;;0.59;100.00
46087;BME280;31824;49.648;8.640;2024-01-30T05:11:22;101717.72;;;0.60;100.00
46087;BME280;31824;49.648;8.640;2024-01-30T05:14:25;101716.09;;;0.55;100.00
46087;BME280;31824;49.648;8.640;2024-01-30T05:17:27;101713.97;;;0.58;100.00
46087;BME280;31824;49.648;8.640;2024-01-30T05:20:29;101718.16;;;0.52;100.00
46087;BME280;31824;49.648;8.640;2024-01-30T05:23:31;101732.75;;;0.62;100.00
46087;BME280;31824;49.648;8.640;2024-01-30T05:26:33;101721.72;;;0.52;100.00
46087;BME280;31824;49.648;8.640;2024-01-30T05:29:36;101726.88;;;0.52;100.00
46087;BME280;31824;49.648;8.640;2024-01-30T05:32:38;101729.94;;;0.61;100.00
46087;BME280;31824;49.648;8.640;2024-01-30T05:35:40;101717.28;;;0.74;100.00
46087;BME280;31824;49.648;8.640;2024-01-30T05:38:42;101722.75;;;1.04;100.00
46087;BME280;31824;49.648;8.640;2024-01-30T05:41:44;101722.28;;;1.23;100.00
46087;BME280;31824;49.648;8.640;2024-01-30T05:44:47;101721.97;;;1.67;100.00
46087;BME280;31824;49.648;8.640;2024-01-30T05:47:49;101720.53;;;1.86;100.00
46087;BME280;31824;49.648;8.640;2024-01-30T05:50:51;101721.84;;;2.18;100.00
46087;BME280;31824;49.648;8.640;2024-01-30T05:53:53;101728.88;;;2.30;100.00
46087;BME280;31824;49.648;8.640;2024-01-30T05:56:55;101725.31;;;2.35;100.00
46087;BME280;31824;49.648;8.640;2024-01-30T05:59:58;101713.94;;;2.41;100.00
46087;BME280;31824;49.648;8.640;2024-01-30T06:03:00;101709.97;;;2.37;100.00
46087;BME280;31824;49.648;8.640;2024-01-30T06:06:02;101716.06;;;2.49;100.00
46087;BME280;31824;49.648;8.640;2024-01-30T06:09:04;101712.25;;;2.52;100.00
46087;BME280;31824;49.648;8.640;2024-01-30T06:12:06;101717.72;;;2.43;100.00
46087;BME280;31824;49.648;8.640;2024-01-30T06:15:10;101729.06;;;2.38;100.00
46087;BME280;31824;49.648;8.640;2024-01-30T06:18:14;101731.44;;;2.36;100.00
46087;BME280;31824;49.648;8.640;2024-01-30T06:21:16;101725.59;;;2.20;100.00
46087;BME280;31824;49.648;8.640;2024-01-30T06:24:18;101719.94;;;2.23;100.00
46087;BME280;31824;49.648;8.640;2024-01-30T06:27:20;101726.94;;;2.35;100.00
46087;BME280;31824;49.648;8.640;2024-01-30T06:30:23;101717.72;;;2.43;100.00
46087;BME280;31824;49.648;8.640;2024-01-30T06:33:25;101723.94;;;2.26;100.00
46087;BME280;31824;49.648;8.640;2024-01-30T06:36:27;101734.31;;;2.26;100.00
46087;BME280;31824;49.648;8.640;2024-01-30T06:39:29;101727.97;;;2.18;100.00
46087;BME280;31824;49.648;8.640;2024-01-30T06:42:31;101719.91;;;2.28;100.00
46087;BME280;31824;49.648;8.640;2024-01-30T06:45:34;101717.31;;;2.75;100.00
46087;BME280;31824;49.648;8.640;2024-01-30T06:48:36;101715.06;;;2.95;100.00
46087;BME280;31824;49.648;8.640;2024-01-30T06:51:38;101722.81;;;3.01;100.00
46087;BME280;31824;49.648;8.640;2024-01-30T06:54:40;101722.84;;;2.90;100.00
46087;BME280;31824;49.648;8.640;2024-01-30T06:57:42;101722.00;;;2.78;100.00
46087;BME280;31824;49.648;8.640;2024-01-30T07:00:45;101719.47;;;2.72;100.00
46087;BME280;31824;49.648;8.640;2024-01-30T07:03:47;101717.78;;;2.73;100.00
46087;BME280;31824;49.648;8.640;2024-01-30T07:06:49;101718.50;;;2.72;100.00
46087;BME280;31824;49.648;8.640;2024-01-30T07:09:51;101723.00;;;2.73;100.00
46087;BME280;31824;49.648;8.640;2024-01-30T07:12:58;101721.31;;;2.73;100.00
46087;BME280;31824;49.648;8.640;2024-01-30T07:16:03;101724.22;;;2.99;100.00
46087;BME280;31824;49.648;8.640;2024-01-30T07:19:06;101720.16;;;3.07;100.00
46087;BME280;31824;49.648;8.640;2024-01-30T07:22:09;101721.44;;;2.92;100.00
46087;BME280;31824;49.648;8.640;2024-01-30T07:25:11;101720.38;;;2.73;100.00
46087;BME280;31824;49.648;8.640;2024-01-30T07:28:13;101727.91;;;2.77;100.00
46087;BME280;31824;49.648;8.640;2024-01-30T07:31:19;101725.41;;;2.65;100.00
46087;BME280;31824;49.648;8.640;2024-01-30T07:34:22;101722.84;;;2.54;100.00
46087;BME280;31824;49.648;8.640;2024-01-30T07:37:24;101729.66;;;2.59;100.00
46087;BME280;31824;49.648;8.640;2024-01-30T07:40:26;101723.03;;;2.67;100.00
46087;BME280;31824;49.648;8.640;2024-01-30T07:43:28;101726.09;;;2.64;100.00
46087;BME280;31824;49.648;8.640;2024-01-30T07:46:31;101733.09;;;3.12;100.00
46087;BME280;31824;49.648;8.640;2024-01-30T07:49:33;101731.25;;;3.35;100.00
46087;BME280;31824;49.648;8.640;2024-01-30T07:52:35;101731.88;;;3.46;100.00
46087;BME280;31824;49.648;8.640;2024-01-30T07:55:38;101736.88;;;3.38;100.00
46087;BME280;31824;49.648;8.640;2024-01-30T07:58:40;101739.81;;;3.29;100.00
46087;BME280;31824;49.648;8.640;2024-01-30T08:01:44;101739.59;;;3.27;100.00
46087;BME280;31824;49.648;8.640;2024-01-30T08:04:46;101753.44;;;3.39;100.00
46087;BME280;31824;49.648;8.640;2024-01-30T08:07:50;101757.97;;;3.59;100.00
46087;BME280;31824;49.648;8.640;2024-01-30T08:10:52;101762.75;;;3.80;100.00
46087;BME280;31824;49.648;8.640;2024-01-30T08:13:54;101764.22;;;3.96;100.00
46087;BME280;31824;49.648;8.640;2024-01-30T08:16:58;101757.25;;;4.27;100.00
46087;BME280;31824;49.648;8.640;2024-01-30T08:19:59;101762.81;;;4.72;100.00
46087;BME280;31824;49.648;8.640;2024-01-30T08:23:02;101767.56;;;4.88;100.00
46087;BME280;31824;49.648;8.640;2024-01-30T08:26:04;101769.97;;;5.18;100.00
46087;BME280;31824;49.648;8.640;2024-01-30T08:29:06;101761.19;;;5.49;100.00
46087;BME280;31824;49.648;8.640;2024-01-30T08:32:09;101776.84;;;5.87;100.00
46087;BME280;31824;49.648;8.640;2024-01-30T08:35:11;101775.00;;;5.86;100.00
46087;BME280;31824;49.648;8.640;2024-01-30T08:38:16;101772.47;;;5.94;100.00
46087;BME280;31824;49.648;8.640;2024-01-30T08:41:17;101779.06;;;5.97;100.00
46087;BME280;31824;49.648;8.640;2024-01-30T08:44:25;101775.31;;;6.21;100.00
46087;BME280;31824;49.648;8.640;2024-01-30T08:47:28;101776.34;;;6.29;100.00
46087;BME280;31824;49.648;8.640;2024-01-30T08:50:30;101765.47;;;6.38;100.00
46087;BME280;31824;49.648;8.640;2024-01-30T08:53:32;101767.63;;;6.48;100.00
46087;BME280;31824;49.648;8.640;2024-01-30T08:56:33;101759.59;;;6.47;100.00
46087;BME280;31824;49.648;8.640;2024-01-30T08:59:35;101765.59;;;6.66;100.00
46087;BME280;31824;49.648;8.640;2024-01-30T09:02:47;101759.59;;;6.80;100.00
46087;BME280;31824;49.648;8.640;2024-01-30T09:05:49;101756.66;;;6.84;100.00
46087;BME280;31824;49.648;8.640;2024-01-30T09:08:51;101757.53;;;6.97;100.00
46087;BME280;31824;49.648;8.640;2024-01-30T09:11:53;101762.50;;;7.08;100.00
46087;BME280;31824;49.648;8.640;2024-01-30T09:14:55;101762.72;;;7.10;100.00
46087;BME280;31824;49.648;8.640;2024-01-30T09:17:59;101770.81;;;7.19;100.00
46087;BME280;31824;49.648;8.640;2024-01-30T09:21:00;101771.22;;;7.22;100.00
46087;BME280;31824;49.648;8.640;2024-01-30T09:24:03;101772.47;;;7.38;100.00
46087;BME280;31824;49.648;8.640;2024-01-30T09:27:08;101776.56;;;7.36;100.00
46087;BME280;31824;49.648;8.640;2024-01-30T09:30:10;101773.44;;;7.39;100.00
46087;BME280;31824;49.648;8.640;2024-01-30T09:33:14;101782.06;;;7.45;100.00
46087;BME280;31824;49.648;8.640;2024-01-30T09:36:15;101781.94;;;7.51;100.00
46087;BME280;31824;49.648;8.640;2024-01-30T09:39:20;101780.09;;;7.57;100.00
46087;BME280;31824;49.648;8.640;2024-01-30T09:42:28;101776.75;;;7.58;100.00
46087;BME280;31824;49.648;8.640;2024-01-30T09:45:32;101782.72;;;7.57;100.00
46087;BME280;31824;49.648;8.640;2024-01-30T09:48:35;101781.31;;;7.66;100.00
46087;BME280;31824;49.648;8.640;2024-01-30T09:51:38;101781.53;;;7.75;100.00
46087;BME280;31824;49.648;8.640;2024-01-30T09:54:41;101785.88;;;7.82;100.00
46087;BME280;31824;49.648;8.640;2024-01-30T09:57:43;101783.13;;;7.87;100.00
46087;BME280;31824;49.648;8.640;2024-01-30T10:00:45;101790.31;;;7.96;100.00
46087;BME280;31824;49.648;8.640;2024-01-30T10:03:50;101785.09;;;8.03;100.00
46087;BME280;31824;49.648;8.640;2024-01-30T10:06:53;101780.78;;;8.03;100.00
46087;BME280;31824;49.648;8.640;2024-01-30T10:09:56;101774.09;;;8.05;100.00
46087;BME280;31824;49.648;8.640;2024-01-30T10:13:01;101777.88;;;8.15;100.00
46087;BME280;31824;49.648;8.640;2024-01-30T10:16:06;101768.78;;;8.25;100.00
46087;BME280;31824;49.648;8.640;2024-01-30T10:19:10;101773.50;;;8.35;100.00
46087;BME280;31824;49.648;8.640;2024-01-30T10:22:11;101772.19;;;8.39;100.00
46087;BME280;31824;49.648;8.640;2024-01-30T10:25:14;101778.81;;;8.50;100.00
46087;BME280;31824;49.648;8.640;2024-01-30T10:28:17;101775.09;;;8.55;100.00
46087;BME280;31824;49.648;8.640;2024-01-30T10:31:19;101777.53;;;8.60;100.00
46087;BME280;31824;49.648;8.640;2024-01-30T10:34:22;101775.09;;;8.62;100.00
46087;BME280;31824;49.648;8.640;2024-01-30T10:37:25;101776.88;;;8.76;100.00
46087;BME280;31824;49.648;8.640;2024-01-30T10:40:28;101769.94;;;8.84;100.00
46087;BME280;31824;49.648;8.640;2024-01-30T10:43:32;101779.69;;;8.85;100.00
46087;BME280;31824;49.648;8.640;2024-01-30T10:46:38;101770.16;;;8.92;100.00
46087;BME280;31824;49.648;8.640;2024-01-30T10:49:52;101766.03;;;8.87;100.00
46087;BME280;31824;49.648;8.640;2024-01-30T10:52:55;101775.94;;;8.90;100.00
46087;BME280;31824;49.648;8.640;2024-01-30T10:55:59;101781.00;;;8.88;100.00
46087;BME280;31824;49.648;8.640;2024-01-30T10:59:02;101776.31;;;8.93;100.00
46087;BME280;31824;49.648;8.640;2024-01-30T11:02:06;101774.06;;;8.89;100.00
46087;BME280;31824;49.648;8.640;2024-01-30T11:05:09;101766.81;;;8.93;100.00
46087;BME280;31824;49.648;8.640;2024-01-30T11:08:13;101768.66;;;8.87;100.00
46087;BME280;31824;49.648;8.640;2024-01-30T11:11:16;101764.50;;;8.82;100.00
46087;BME280;31824;49.648;8.640;2024-01-30T11:14:23;101765.09;;;8.87;100.00
46087;BME280;31824;49.648;8.640;2024-01-30T11:17:27;101767.53;;;9.00;100.00
46087;BME280;31824;49.648;8.640;2024-01-30T11:20:31;101768.88;;;9.18;100.00
46087;BME280;31824;49.648;8.640;2024-01-30T11:23:34;101766.09;;;9.52;100.00
46087;BME280;31824;49.648;8.640;2024-01-30T11:26:37;101773.72;;;9.87;100.00
46087;BME280;31824;49.648;8.640;2024-01-30T11:29:40;101773.00;;;9.73;100.00
46087;BME280;31824;49.648;8.640;2024-01-30T11:32:42;101773.00;;;9.52;100.00
46087;BME280;31824;49.648;8.640;2024-01-30T11:35:45;101767.94;;;9.46;100.00
46087;BME280;31824;49.648;8.640;2024-01-30T11:38:48;101767.19;;;9.54;100.00
46087;BME280;31824;49.648;8.640;2024-01-30T11:41:51;101760.25;;;9.69;100.00
46087;BME280;31824;49.648;8.640;2024-01-30T11:44:53;101762.31;;;9.65;100.00
46087;BME280;31824;49.648;8.640;2024-01-30T11:47:56;101771.13;;;9.58;100.00
46087;BME280;31824;49.648;8.640;2024-01-30T11:50:59;101763.66;;;9.46;100.00
46087;BME280;31824;49.648;8.640;2024-01-30T11:54:02;101754.63;;;9.30;100.00
46087;BME280;31824;49.648;8.640;2024-01-30T11:57:04;101742.31;;;9.29;100.00
46087;BME280;31824;49.648;8.640;2024-01-30T12:00:14;101731.44;;;9.33;100.00
46087;BME280;31824;49.648;8.640;2024-01-30T12:03:16;101726.00;;;9.32;100.00
46087;BME280;31824;49.648;8.640;2024-01-30T12:06:19;101721.31;;;9.36;100.00
46087;BME280;31824;49.648;8.640;2024-01-30T12:09:21;101714.75;;;9.40;100.00
46087;BME280;31824;49.648;8.640;2024-01-30T12:12:24;101715.69;;;9.40;100.00
46087;BME280;31824;49.648;8.640;2024-01-30T12:15:27;101705.34;;;9.49;100.00
46087;BME280;31824;49.648;8.640;2024-01-30T12:18:29;101709.47;;;9.69;100.00
46087;BME280;31824;49.648;8.640;2024-01-30T12:21:33;101710.75;;;9.72;100.00
46087;BME280;31824;49.648;8.640;2024-01-30T12:24:35;101714.53;;;9.67;100.00
46087;BME280;31824;49.648;8.640;2024-01-30T12:27:37;101716.00;;;9.65;100.00
46087;BME280;31824;49.648;8.640;2024-01-30T12:30:39;101717.72;;;9.65;100.00
46087;BME280;31824;49.648;8.640;2024-01-30T12:33:40;101716.75;;;9.64;100.00
46087;BME280;31824;49.648;8.640;2024-01-30T12:36:44;101720.91;;;9.62;100.00
46087;BME280;31824;49.648;8.640;2024-01-30T12:39:46;101724.28;;;9.54;100.00
46087;BME280;31824;49.648;8.640;2024-01-30T12:42:48;101728.59;;;9.60;100.00
46087;BME280;31824;49.648;8.640;2024-01-30T12:45:52;101723.16;;;9.59;100.00
46087;BME280;31824;49.648;8.640;2024-01-30T12:48:54;101723.72;;;9.56;100.00
46087;BME280;31824;49.648;8.640;2024-01-30T12:51:58;101727.47;;;9.58;100.00
46087;BME280;31824;49.648;8.640;2024-01-30T12:55:00;101723.91;;;9.58;100.00
46087;BME280;31824;49.648;8.640;2024-01-30T12:58:02;101725.56;;;9.72;100.00
46087;BME280;31824;49.648;8.640;2024-01-30T13:01:04;101714.88;;;9.77;100.00
46087;BME280;31824;49.648;8.640;2024-01-30T13:04:06;101718.63;;;9.79;100.00
46087;BME280;31824;49.648;8.640;2024-01-30T13:07:10;101722.00;;;9.78;100.00
46087;BME280;31824;49.648;8.640;2024-01-30T13:10:12;101719.91;;;9.90;100.00
46087;BME280;31824;49.648;8.640;2024-01-30T13:13:14;101710.00;;;9.80;100.00
46087;BME280;31824;49.648;8.640;2024-01-30T13:16:21;101716.53;;;9.91;100.00
46087;BME280;31824;49.648;8.640;2024-01-30T13:19:23;101714.22;;;10.09;100.00
46087;BME280;31824;49.648;8.640;2024-01-30T13:22:26;101717.34;;;10.21;100.00
46087;BME280;31824;49.648;8.640;2024-01-30T13:25:28;101722.22;;;10.25;100.00
46087;BME280;31824;49.648;8.640;2024-01-30T13:28:30;101715.47;;;10.27;100.00
46087;BME280;31824;49.648;8.640;2024-01-30T13:31:32;101712.69;;;10.63;100.00
46087;BME280;31824;49.648;8.640;2024-01-30T13:34:34;101719.75;;;10.71;100.00
46087;BME280;31824;49.648;8.640;2024-01-30T13:37:38;101718.25;;;10.36;100.00
46087;BME280;31824;49.648;8.640;2024-01-30T13:40:40;101713.56;;;10.40;100.00
46087;BME280;31824;49.648;8.640;2024-01-30T13:43:43;101707.13;;;10.45;100.00
46087;BME280;31824;49.648;8.640;2024-01-30T13:46:45;101702.72;;;10.23;100.00
46087;BME280;31824;49.648;8.640;2024-01-30T13:49:47;101698.63;;;10.18;100.00
46087;BME280;31824;49.648;8.640;2024-01-30T13:52:51;101704.63;;;10.17;100.00
46087;BME280;31824;49.648;8.640;2024-01-30T13:55:53;101698.63;;;10.18;100.00
46087;BME280;31824;49.648;8.640;2024-01-30T13:58:55;101690.19;;;10.13;100.00
46087;BME280;31824;49.648;8.640;2024-01-30T14:01:59;101699.00;;;10.13;100.00
46087;BME280;31824;49.648;8.640;2024-01-30T14:05:21;101689.78;;;10.17;100.00
46087;BME280;31824;49.648;8.640;2024-01-30T14:11:06;101687.78;;;10.07;100.00
46087;BME280;31824;49.648;8.640;2024-01-30T14:14:08;101686.28;;;10.02;100.00
46087;BME280;31824;49.648;8.640;2024-01-30T14:17:10;101684.22;;;10.07;100.00
46087;BME280;31824;49.648;8.640;2024-01-30T14:20:12;101677.84;;;10.05;100.00
46087;BME280;31824;49.648;8.640;2024-01-30T14:23:16;101683.31;;;9.99;100.00
46087;BME280;31824;49.648;8.640;2024-01-30T14:26:20;101684.22;;;10.07;100.00
46087;BME280;31824;49.648;8.640;2024-01-30T14:29:22;101685.31;;;10.09;100.00
46087;BME280;31824;49.648;8.640;2024-01-30T14:32:24;101683.44;;;10.15;100.00
46087;BME280;31824;49.648;8.640;2024-01-30T14:35:27;101684.00;;;10.12;100.00
46087;BME280;31824;49.648;8.640;2024-01-30T14:38:29;101686.97;;;10.23;100.00
46087;BME280;31824;49.648;8.640;2024-01-30T14:41:32;101684.69;;;10.26;100.00
46087;BME280;31824;49.648;8.640;2024-01-30T14:44:34;101693.09;;;10.30;100.00
46087;BME280;31824;49.648;8.640;2024-01-30T14:47:36;101699.50;;;10.33;100.00
46087;BME280;31824;49.648;8.640;2024-01-30T14:50:38;101704.56;;;10.24;100.00
46087;BME280;31824;49.648;8.640;2024-01-30T14:53:40;101705.53;;;10.24;100.00
46087;BME280;31824;49.648;8.640;2024-01-30T14:56:43;101707.59;;;10.27;100.00
46087;BME280;31824;49.648;8.640;2024-01-30T14:59:45;101709.47;;;10.21;100.00
46087;BME280;31824;49.648;8.640;2024-01-30T15:02:47;101704.78;;;10.18;100.00
46087;BME280;31824;49.648;8.640;2024-01-30T15:05:49;101713.75;;;10.27;100.00
46087;BME280;31824;49.648;8.640;2024-01-30T15:08:51;101720.94;;;10.14;100.00
46087;BME280;31824;49.648;8.640;2024-01-30T15:11:55;101714.41;;;10.10;100.00
46087;BME280;31824;49.648;8.640;2024-01-30T15:14:57;101713.28;;;10.08;100.00
46087;BME280;31824;49.648;8.640;2024-01-30T15:17:58;101715.94;;;10.01;100.00
46087;BME280;31824;49.648;8.640;2024-01-30T15:21:01;101720.06;;;10.06;100.00
46087;BME280;31824;49.648;8.640;2024-01-30T15:24:03;101718.56;;;10.01;100.00
46087;BME280;31824;49.648;8.640;2024-01-30T15:27:06;101716.13;;;10.03;100.00
46087;BME280;31824;49.648;8.640;2024-01-30T15:30:11;101718.19;;;9.98;100.00
46087;BME280;31824;49.648;8.640;2024-01-30T15:33:13;101721.38;;;10.03;100.00
46087;BME280;31824;49.648;8.640;2024-01-30T15:36:15;101718.56;;;10.01;100.00
46087;BME280;31824;49.648;8.640;2024-01-30T15:39:17;101725.31;;;9.99;100.00
46087;BME280;31824;49.648;8.640;2024-01-30T15:42:20;101728.69;;;10.05;100.00
46087;BME280;31824;49.648;8.640;2024-01-30T15:45:22;101722.69;;;9.99;100.00
46087;BME280;31824;49.648;8.640;2024-01-30T15:48:28;101729.59;;;10.06;100.00
46087;BME280;31824;49.648;8.640;2024-01-30T15:51:30;101722.28;;;10.03;100.00
46087;BME280;31824;49.648;8.640;2024-01-30T15:54:32;101730.91;;;10.02;100.00